Time;durP1;ratioP1;P1;durP2;ratioP2;P2;SDS_P1;SDS_P2;PMS_P1;PMS_P2;Temp;Humidity;BMP_temperature;BMP_pressure;BME280_temperature;BME280_humidity;BME280_pressure;Samples;Min_cycle;Max_cycle;Signal;HPM_P1;HPM_P2
2022/07/30 00:06:05;;;;;;;;;;;;;;;;;;21174495;28;20324;-58
2022/07/30 00:16:07;;;;;;;;;;;;;;;;;;21172462;28;19984;-67
2022/07/30 00:26:09;;;;;;;;;;;;;;;;;;21171741;28;19998;-65
2022/07/30 00:36:11;;;;;;;;;;;;;;;;;;21171331;28;19932;-64
2022/07/30 00:46:15;;;;;;;;;;;;;;;;;;21171728;28;19923;-67
2022/07/30 00:56:17;;;;;;;;;;;;;;;;;;21169604;28;19966;-60
2022/07/30 01:06:19;;;;;;;;;;;;;;;;;;21169482;28;19924;-60
2022/07/30 01:16:21;;;;;;;;;;;;;;;;;;21168244;28;19953;-64
2022/07/30 01:26:23;;;;;;;;;;;;;;;;;;21167446;28;19924;-58
2022/07/30 01:36:31;;;;;;;;;;;;;;;;;;21166544;28;19924;-55
2022/07/30 01:46:52;;;;;;;;;;;;;;;;;;21168298;28;19968;-65
2022/07/30 01:56:56;;;;;;;;;;;;;;;;;;21167361;28;19924;-60
2022/07/30 02:07:18;;;;;;;;;;;;;;;;;;21165231;28;20272;-66
2022/07/30 02:17:31;;;;;;;;;;;;;;;;;;21163362;28;19928;-65
2022/07/30 02:27:45;;;;;;;;;;;;;;;;;;21163472;28;19931;-54
2022/07/30 02:38:06;;;;;;;;;;;;;;;;;;21163021;28;20006;-62
2022/07/30 02:48:28;;;;;;;;;;;;;;;;;;21179723;28;19923;-60
2022/07/30 02:58:39;;;;;;;;;;;;;;;;;;21180888;28;20359;-58
2022/07/30 03:08:43;;;;;;;;;;;;;;;;;;21177547;28;19996;-63
2022/07/30 03:18:47;;;;;;;;;;;;;;;;;;21178962;28;20002;-64
2022/07/30 03:28:57;;;;;;;;;;;;;;;;;;21177144;28;19977;-65
2022/07/30 03:38:59;;;;;;;;;;;;;;;;;;21176413;28;19938;-65
2022/07/30 03:49:01;;;;;;;;;;;;;;;;;;21175027;28;19924;-54
2022/07/30 03:59:03;;;;;;;;;;;;;;;;;;21173507;28;20383;-63
2022/07/30 04:09:06;;;;;;;;;;;;;;;;;;21173190;28;19947;-55
2022/07/30 04:19:08;;;;;;;;;;;;;;;;;;21173451;28;19924;-53
2022/07/30 04:29:09;;;;;;;;;;;;;;;;;;21172748;28;19924;-55
2022/07/30 04:39:11;;;;;;;;;;;;;;;;;;21172026;28;19981;-54
2022/07/30 04:49:15;;;;;;;;;;;;;;;;;;21171567;28;20038;-55
2022/07/30 04:59:17;;;;;;;;;;;;;;;;;;21169758;28;20018;-55
2022/07/30 05:09:19;;;;;;;;;;;;;;;;;;21141662;28;19927;-54
2022/07/30 05:19:21;;;;;;;;;;;;;;;;;;21084431;28;20299;-57
2022/07/30 05:29:25;;;;;;;;;;;;;;;;;;21082822;28;19931;-55
2022/07/30 05:39:28;;;;;;;;;;;;;;;;;;21082092;28;19931;-54
2022/07/30 05:49:30;;;;;;;;;;;;;;;;;;21082072;28;20018;-57
2022/07/30 05:59:31;;;;;;;;;;;;;;;;;;21081614;28;19928;-54
2022/07/30 06:09:33;;;;;;;;;;;;;;;;;;21081701;28;19924;-62
2022/07/30 06:19:36;;;;;;;;;;;;;;;;;;21079205;28;19924;-57
2022/07/30 06:29:37;;;;;;;;;;;;;;;;;;21078985;28;20445;-56
2022/07/30 06:39:40;;;;;;;;;;;;;;;;;;21079118;28;19928;-59
2022/07/30 06:49:42;;;;;;;;;;;;;;;;;;21079117;28;19947;-58
2022/07/30 06:59:44;;;;;;;;;;;;;;;;;;21081445;28;19931;-56
2022/07/30 07:09:46;;;;;;;;;;;;;;;;;;21078841;27;19935;-57
2022/07/30 07:19:47;;;;;;;;;;;;;;;;;;21079395;28;19975;-58
2022/07/30 07:29:49;;;;;;;;;;;;;;;;;;21083776;28;20423;-60
2022/07/30 07:39:51;;;;;;;;;;;;;;;;;;21092150;28;20023;-57
2022/07/30 07:49:53;;;;;;;;;;;;;;;;;;21091969;28;19994;-54
2022/07/30 07:59:55;;;;;;;;;;;;;;;;;;21090865;28;19924;-63
2022/07/30 08:09:56;;;;;;;;;;;;;;;;;;21121751;28;20290;-57
2022/07/30 08:19:59;;;;;;;;;;;;;;;;;;21172650;28;19924;-54
2022/07/30 08:30:01;;;;;;;;;;;;;;;;;;21172897;28;19934;-54
2022/07/30 08:40:03;;;;;;;;;;;;;;;;;;21172382;28;19986;-58
2022/07/30 08:50:05;;;;;;;;;;;;;;;;;;21170835;28;19924;-54
2022/07/30 09:00:07;;;;;;;;;;;;;;;;;;21169464;28;19977;-55
2022/07/30 09:10:09;;;;;;;;;;;;;;;;;;21171352;28;19924;-54
2022/07/30 09:20:11;;;;;;;;;;;;;;;;;;21168822;28;19935;-55
2022/07/30 09:30:13;;;;;;;;;;;;;;;;;;21170476;28;19924;-56
2022/07/30 09:40:15;;;;;;;;;;;;;;;;;;21169701;28;19949;-55
2022/07/30 09:50:18;;;;;;;;;;;;;;;;;;21168956;28;20343;-53
2022/07/30 10:00:19;;;;;;;;;;;;;;;;;;21170314;28;20480;-54
2022/07/30 10:10:21;;;;;;;;;;;;;;;;;;21157334;28;20015;-54
2022/07/30 10:20:23;;;;;;;;;;;;;;;;;;21164932;28;19923;-60
2022/07/30 10:30:27;;;;;;;;;;;;;;;;;;21162568;28;21325;-55
2022/07/30 10:40:29;;;;;;;;;;;;;;;;;;21163086;28;19924;-56
2022/07/30 10:50:31;;;;;;;;;;;;;;;;;;21162727;28;19924;-58
2022/07/30 11:00:33;;;;;;;;;;;;;;;;;;21180488;28;20076;-66
2022/07/30 11:10:36;;;;;;;;;;;;;;;;;;21181820;28;19975;-56
2022/07/30 11:20:38;;;;;;;;;;;;;;;;;;21178819;28;19968;-56
2022/07/30 11:30:39;;;;;;;;;;;;;;;;;;21176550;28;20097;-55
2022/07/30 11:40:43;;;;;;;;;;;;;;;;;;21175473;28;19996;-59
2022/07/30 11:50:45;;;;;;;;;;;;;;;;;;21174746;28;19936;-63
2022/07/30 12:00:46;;;;;;;;;;;;;;;;;;21174402;28;19931;-59
2022/07/30 12:10:48;;;;;;;;;;;;;;;;;;21174979;28;19924;-66
2022/07/30 12:20:50;;;;;;;;;;;;;;;;;;21173797;28;20022;-62
2022/07/30 12:30:51;;;;;;;;;;;;;;;;;;21172595;28;20392;-54
2022/07/30 12:40:53;;;;;;;;;;;;;;;;;;21171393;28;19924;-62
2022/07/30 12:50:55;;;;;;;;;;;;;;;;;;21170756;28;19975;-65
2022/07/30 13:00:57;;;;;;;;;;;;;;;;;;21169682;28;19923;-64
2022/07/30 13:10:59;;;;;;;;;;;;;;;;;;21172970;28;19924;-59
2022/07/30 13:21:01;;;;;;;;;;;;;;;;;;21172355;28;19924;-61
2022/07/30 13:31:03;;;;;;;;;;;;;;;;;;21168293;28;19967;-61
2022/07/30 13:41:06;;;;;;;;;;;;;;;;;;21170946;28;19924;-60
2022/07/30 13:51:08;;;;;;;;;;;;;;;;;;21168993;28;20372;-68
2022/07/30 14:01:10;;;;;;;;;;;;;;;;;;21181301;27;20287;-58
2022/07/30 14:11:12;;;;;;;;;;;;;;;;;;21164892;28;20499;-65
2022/07/30 14:21:14;;;;;;;;;;;;;;;;;;21164115;28;20299;-66
2022/07/30 14:31:15;;;;;;;;;;;;;;;;;;21179343;28;19924;-58
2022/07/30 14:41:17;;;;;;;;;;;;;;;;;;21175340;28;20299;-65
2022/07/30 14:51:19;;;;;;;;;;;;;;;;;;21186231;28;20456;-67
2022/07/30 15:01:21;;;;;;;;;;;;;;;;;;21195221;27;19928;-66
2022/07/30 15:11:23;;;;;;;;;;;;;;;;;;21178228;28;20009;-68
2022/07/30 15:21:24;;;;;;;;;;;;;;;;;;21178023;28;19934;-66
2022/07/30 15:31:26;;;;;;;;;;;;;;;;;;21177010;28;19923;-56
2022/07/30 15:41:28;;;;;;;;;;;;;;;;;;21176308;28;19951;-64
2022/07/30 15:51:29;;;;;;;;;;;;;;;;;;21175210;28;19924;-68
2022/07/30 16:01:31;;;;;;;;;;;;;;;;;;21176686;28;20014;-62
2022/07/30 16:11:33;;;;;;;;;;;;;;;;;;21174382;28;20022;-61
2022/07/30 16:21:35;;;;;;;;;;;;;;;;;;21176238;28;20409;-58
2022/07/30 16:31:39;;;;;;;;;;;;;;;;;;21172250;28;19924;-57
2022/07/30 16:41:41;;;;;;;;;;;;;;;;;;21172049;28;19923;-66
2022/07/30 16:51:43;;;;;;;;;;;;;;;;;;21170194;28;19923;-64
2022/07/30 17:01:44;;;;;;;;;;;;;;;;;;21184973;27;19967;-66
2022/07/30 17:11:47;;;;;;;;;;;;;;;;;;21168583;28;20410;-62
2022/07/30 17:21:49;;;;;;;;;;;;;;;;;;21168162;28;19975;-61
2022/07/30 17:31:51;;;;;;;;;;;;;;;;;;21168942;28;20018;-65
2022/07/30 17:41:52;;;;;;;;;;;;;;;;;;21166508;28;19924;-63
2022/07/30 17:51:54;;;;;;;;;;;;;;;;;;21166039;28;19930;-62
2022/07/30 18:01:58;;;;;;;;;;;;;;;;;;21164873;28;19966;-65
2022/07/30 18:12:00;;;;;;;;;;;;;;;;;;21163204;28;20041;-63
2022/07/30 18:22:02;;;;;;;;;;;;;;;;;;21163274;28;20035;-64
2022/07/30 18:32:04;;;;;;;;;;;;;;;;;;21162688;28;19923;-65
2022/07/30 18:42:06;;;;;;;;;;;;;;;;;;21164899;28;20000;-65
2022/07/30 18:52:08;;;;;;;;;;;;;;;;;;21162754;28;19932;-60
2022/07/30 19:02:10;;;;;;;;;;;;;;;;;;21162880;28;20303;-67
2022/07/30 19:12:12;;;;;;;;;;;;;;;;;;21212764;28;19927;-68
2022/07/30 19:22:14;;;;;;;;;;;;;;;;;;21247853;27;20012;-61
2022/07/30 19:32:16;;;;;;;;;;;;;;;;;;21261759;27;19992;-55
2022/07/30 19:42:17;;;;;;;;;;;;;;;;;;21262462;27;19923;-68
2022/07/30 19:52:19;;;;;;;;;;;;;;;;;;21260995;27;19923;-62
2022/07/30 20:02:21;;;;;;;;;;;;;;;;;;21261405;27;19930;-68
2022/07/30 20:12:23;;;;;;;;;;;;;;;;;;21270180;27;19996;-56
2022/07/30 20:22:25;;;;;;;;;;;;;;;;;;21283319;27;20427;-57
2022/07/30 20:32:28;;;;;;;;;;;;;;;;;;21268860;27;20022;-59
2022/07/30 20:42:29;;;;;;;;;;;;;;;;;;21259478;27;19923;-56
2022/07/30 20:52:32;;;;;;;;;;;;;;;;;;21256398;27;19923;-60
2022/07/30 21:02:33;;;;;;;;;;;;;;;;;;21256192;27;19930;-55
2022/07/30 21:12:35;;;;;;;;;;;;;;;;;;21255007;27;19923;-55
2022/07/30 21:22:37;;;;;;;;;;;;;;;;;;21255057;27;19929;-55
2022/07/30 21:32:39;;;;;;;;;;;;;;;;;;21254851;27;20020;-56
2022/07/30 21:42:41;;;;;;;;;;;;;;;;;;21252093;27;19976;-62
2022/07/30 21:52:44;;;;;;;;;;;;;;;;;;21251184;27;19923;-63
2022/07/30 22:02:45;;;;;;;;;;;;;;;;;;21251396;27;20288;-67
2022/07/30 22:12:47;;;;;;;;;;;;;;;;;;21248864;27;19974;-64
2022/07/30 22:22:49;;;;;;;;;;;;;;;;;;21252286;27;19930;-67
2022/07/30 22:32:51;;;;;;;;;;;;;;;;;;21249382;27;20381;-60
2022/07/30 22:42:53;;;;;;;;;;;;;;;;;;21249237;28;19934;-59
2022/07/30 22:52:55;;;;;;;;;;;;;;;;;;21247937;28;19923;-62
2022/07/30 23:02:56;;;;;;;;;;;;;;;;;;21258263;27;19978;-56
2022/07/30 23:12:58;;;;;;;;;;;;;;;;;;21262575;27;20040;-60
2022/07/30 23:23:01;;;;;;;;;;;;;;;;;;21264478;27;20284;-59
2022/07/30 23:33:04;;;;;;;;;;;;;;;;;;21262361;27;19923;-66
2022/07/30 23:43:06;;;;;;;;;;;;;;;;;;21261213;27;19929;-66
2022/07/30 23:53:07;;;;;;;;;;;;;;;;;;21260483;27;19968;-57
